Daydream Believer — V7XJ3 — position and weather

sailwx.info

Track history (hours):
 
Tides and Currents Weather Stations Pressure Air Temp Water Temp Dewpoint Dewpoint Depression Visibility Wind Speed Wind Dir Waves Ship Positions

Daydream Believer

Last reported at 2016-Apr-19 22:33 UTC. Time now 2016-Apr-29 23:34 UTC.
Position S 23°44' W 042°13'.
Warning: this ship's position is 10 days out of date.

Length 178 m; draft 6.6 m.

Type: Ship. MMSI: 538004493.

Date/timePositionNaut miles runAvg speedWind from/ knotsBaromVisibWave heightAir tempDewpointWater temp
2016-Apr-19 22:33S 23°44' W 042°13'1110.9
2016-Apr-19 21:32S 23°53' W 042°20'8610.5
2016-Apr-19 13:24S 25°08' W 043°05'1010.7
2016-Apr-19 12:26S 25°17' W 043°11'12911.6
2016-Apr-19 01:18S 27°11' W 044°18'2512.0
2016-Apr-18 23:11S 27°33' W 044°31'1312.2
2016-Apr-18 22:06S 27°45' W 044°39'2012.3
2016-Apr-18 20:28S 28°03' W 044°49'9812.2
2016-Apr-18 12:24S 29°30' W 045°42'14711.5
2016-Apr-17 23:33S 31°37' W 047°09'  
Track history (hours):
 
Tides and Currents Weather Stations Pressure Air Temp Water Temp Dewpoint Dewpoint Depression Visibility Wind Speed Wind Dir Waves Ship Positions

Daydream Believer

Last reported at 2016-Apr-19 22:33 UTC. Time now 2016-Apr-29 23:34 UTC.
Position S 23°44' W 042°13'.
Warning: this ship's position is 10 days out of date.

Length 178 m; draft 6.6 m.

Type: Ship. MMSI: 538004493.

Date/timePositionNaut miles runAvg speedWind from/ knotsBaromVisibWave heightAir tempDewpointWater temp
2016-Apr-19 22:33S 23°44' W 042°13'1110.9
2016-Apr-19 21:32S 23°53' W 042°20'8610.5
2016-Apr-19 13:24S 25°08' W 043°05'1010.7
2016-Apr-19 12:26S 25°17' W 043°11'12911.6
2016-Apr-19 01:18S 27°11' W 044°18'2512.0
2016-Apr-18 23:11S 27°33' W 044°31'1312.2
2016-Apr-18 22:06S 27°45' W 044°39'2012.3
2016-Apr-18 20:28S 28°03' W 044°49'9812.2
2016-Apr-18 12:24S 29°30' W 045°42'14711.5
2016-Apr-17 23:33S 31°37' W 047°09'  

Dump ship's entire track history